Time;durP1;ratioP1;P1;durP2;ratioP2;P2;SDS_P1;SDS_P2;PMS_P1;PMS_P2;Temp;Humidity;BMP_temperature;BMP_pressure;BME280_temperature;BME280_humidity;BME280_pressure;Samples;Min_cycle;Max_cycle;Signal;HPM_P1;HPM_P2
2023/06/14 00:00:18;;;;;;;2.50;2.40;;;;;;;18.54;100.00;129122.81;6245915;23;20156;-58
2023/06/14 00:02:45;;;;;;;4.27;2.53;;;;;;;18.58;100.00;139309.69;6245380;23;20177;-59
2023/06/14 00:05:13;;;;;;;2.67;2.53;;;;;;;18.60;100.00;146293.03;6245946;23;20172;-58
2023/06/14 00:07:43;;;;;;;2.60;2.40;;;;;;;18.46;100.00;147100.16;6245458;23;20196;-58
2023/06/14 00:10:12;;;;;;;4.20;2.90;;;;;;;18.48;100.00;146905.97;6245652;23;20517;-59
2023/06/14 00:12:39;;;;;;;2.93;2.73;;;;;;;18.53;100.00;146659.78;6245768;23;20452;-58
2023/06/14 00:15:09;;;;;;;2.80;2.70;;;;;;;18.56;100.00;148174.47;6245439;23;20266;-60
2023/06/14 00:17:36;;;;;;;2.57;2.37;;;;;;;18.65;100.00;149646.97;6245455;23;20165;-58
2023/06/14 00:20:05;;;;;;;3.07;2.63;;;;;;;18.68;100.00;150733.84;6245391;23;20157;-58
2023/06/14 00:22:32;;;;;;;4.00;2.60;;;;;;;18.37;100.00;150654.97;6245284;23;20183;-58
2023/06/14 00:24:59;;;;;;;2.97;2.87;;;;;;;18.63;100.00;150721.13;6245793;23;20643;-58
2023/06/14 00:27:28;;;;;;;4.13;2.63;;;;;;;18.70;100.00;150737.69;6245632;23;20591;-58
2023/06/14 00:29:54;;;;;;;2.87;2.73;;;;;;;18.73;100.00;150744.00;6245487;23;20495;-58
2023/06/14 00:32:25;;;;;;;3.60;2.43;;;;;;;18.67;100.00;150731.28;6245656;23;20592;-58
2023/06/14 00:34:52;;;;;;;3.90;2.50;;;;;;;18.58;100.00;146896.53;6245389;23;20157;-59
2023/06/14 00:37:19;;;;;;;2.60;2.50;;;;;;;18.58;100.00;150708.44;6245144;23;20156;-58
2023/06/14 00:39:46;;;;;;;3.10;2.70;;;;;;;18.55;100.00;150700.75;6244804;23;20157;-58
2023/06/14 00:42:23;;;;;;;2.73;2.63;;;;;;;18.58;100.00;150707.16;6245512;23;20203;-58
2023/06/14 00:44:51;;;;;;;2.70;2.50;;;;;;;18.66;100.00;150728.78;6244918;23;20214;-57
2023/06/14 00:47:20;;;;;;;2.20;2.10;;;;;;;18.69;100.00;150735.13;6245195;23;20165;-58
2023/06/14 00:49:48;;;;;;;2.53;2.43;;;;;;;18.62;100.00;150718.59;6245453;23;20157;-58
2023/06/14 00:52:16;;;;;;;2.77;2.30;;;;;;;18.62;100.00;150718.59;6245188;23;20156;-61
2023/06/14 00:54:44;;;;;;;3.00;2.87;;;;;;;18.65;100.00;150726.22;6245068;23;20173;-59
2023/06/14 00:57:12;;;;;;;4.80;2.43;;;;;;;18.67;100.00;150731.28;6245043;23;20161;-59
2023/06/14 00:59:44;;;;;;;3.47;2.60;;;;;;;18.75;100.00;150749.13;6245004;23;20157;-58
2023/06/14 01:02:14;;;;;;;3.27;3.00;;;;;;;18.78;100.00;150756.75;6244798;23;20264;-59
2023/06/14 01:04:45;;;;;;;2.80;2.70;;;;;;;18.80;100.00;150761.84;6245100;23;20175;-59
2023/06/14 01:07:16;;;;;;;2.73;2.63;;;;;;;18.65;100.00;150724.94;6244851;23;20248;-59
2023/06/14 01:09:59;;;;;;;2.73;2.63;;;;;;;18.73;100.00;150744.00;6245344;23;20555;-59
2023/06/14 01:12:32;;;;;;;3.03;2.80;;;;;;;18.76;100.00;150751.63;6244800;23;20153;-58
2023/06/14 01:15:02;;;;;;;3.13;2.67;;;;;;;18.77;100.00;150754.19;6245154;23;20567;-58
2023/06/14 01:17:32;;;;;;;4.93;2.97;;;;;;;18.79;100.00;150759.28;6245349;23;20660;-59
2023/06/14 01:20:00;;;;;;;3.20;3.10;;;;;;;18.67;100.00;150731.28;6245201;23;20180;-57
2023/06/14 01:22:27;;;;;;;5.33;2.90;;;;;;;18.77;100.00;150755.47;6245127;23;20183;-58
2023/06/14 01:24:56;;;;;;;4.10;3.80;;;;;;;18.62;100.00;150718.59;6244828;23;20168;-59
2023/06/14 01:27:28;;;;;;;5.37;3.90;;;;;;;18.64;100.00;150722.38;6245320;23;20223;-58
2023/06/14 01:29:57;;;;;;;4.83;3.90;;;;;;;18.48;100.00;148080.50;6245039;23;20156;-58
2023/06/14 01:32:25;;;;;;;4.30;3.93;;;;;;;18.43;100.00;143289.47;6244827;23;20156;-58
2023/06/14 01:34:52;;;;;;;5.63;3.70;;;;;;;18.36;100.00;139277.78;6245189;23;20167;-58
2023/06/14 01:37:21;;;;;;;3.70;3.40;;;;;;;18.41;100.00;137296.91;6245146;23;20157;-59
2023/06/14 01:39:50;;;;;;;3.83;3.63;;;;;;;18.42;100.00;138488.88;6245176;23;20157;-58
2023/06/14 01:42:19;;;;;;;4.37;3.90;;;;;;;18.47;100.00;139456.38;6244420;23;20272;-58
2023/06/14 01:44:47;;;;;;;3.40;3.17;;;;;;;18.33;100.00;136812.69;6244277;23;20218;-58
2023/06/14 01:47:15;;;;;;;3.97;3.77;;;;;;;18.32;100.00;131427.69;6244753;23;20212;-58
2023/06/14 01:49:42;;;;;;;4.97;3.60;;;;;;;18.31;100.00;131424.34;6244544;23;20195;-58
2023/06/14 01:52:10;;;;;;;6.17;3.67;;;;;;;18.24;100.00;127377.94;6244072;23;20183;-58
2023/06/14 01:54:42;;;;;;;6.77;3.57;;;;;;;18.29;100.00;127723.47;6244505;23;20157;-58
2023/06/14 01:57:11;;;;;;;3.90;3.50;;;;;;;18.25;100.00;128387.66;6244998;23;20191;-58
2023/06/14 01:59:39;;;;;;;3.43;3.10;;;;;;;18.31;100.00;121017.69;6245049;23;20161;-58
2023/06/14 02:02:06;;;;;;;5.47;3.87;;;;;;;18.21;100.00;121667.66;6244270;23;20181;-57
2023/06/14 02:04:33;;;;;;;4.00;3.80;;;;;;;18.10;100.00;128020.41;6244926;23;20255;-59
2023/06/14 02:07:00;;;;;;;4.53;3.90;;;;;;;18.11;100.00;120976.78;6244864;23;20244;-58
2023/06/14 02:09:28;;;;;;;4.90;4.53;;;;;;;18.00;100.00;110917.59;6244648;23;20473;-58
2023/06/14 02:11:55;;;;;;;4.20;3.90;;;;;;;18.00;100.00;110917.59;6244232;23;20160;-59
2023/06/14 02:14:23;;;;;;;5.17;4.93;;;;;;;18.01;100.00;107245.22;6244344;23;20165;-57
2023/06/14 02:16:51;;;;;;;7.90;4.77;;;;;;;18.08;100.00;103588.91;6244767;23;20611;-59
2023/06/14 02:19:18;;;;;;;6.83;5.37;;;;;;;18.09;100.00;104590.31;6244331;23;20157;-58
2023/06/14 02:21:45;;;;;;;6.73;5.73;;;;;;;17.84;100.00;95223.72;6244099;23;20202;-58
2023/06/14 02:24:31;;;;;;;5.73;4.80;;;;;;;17.95;100.00;90919.84;5089247;27;20893;-58
2023/06/14 02:26:58;;;;;;;5.07;4.77;;;;;;;18.02;100.00;93257.66;5089002;28;20184;-60
2023/06/14 02:29:25;;;;;;;6.70;4.90;;;;;;;18.02;100.00;95917.31;5088884;28;20188;-59
2023/06/14 02:31:52;;;;;;;5.43;5.03;;;;;;;17.93;100.00;99231.47;5089216;28;20656;-59
2023/06/14 02:34:20;;;;;;;4.93;4.63;;;;;;;17.91;100.00;106893.38;5089199;28;20531;-59
2023/06/14 02:36:47;;;;;;;6.47;4.83;;;;;;;17.91;100.00;107227.06;5089117;28;20184;-59
2023/06/14 02:39:15;;;;;;;9.23;4.70;;;;;;;17.92;100.00;112238.16;5088739;28;20188;-60
2023/06/14 02:41:43;;;;;;;4.63;4.20;;;;;;;17.82;100.00;108880.34;5088650;28;20195;-59
2023/06/14 02:44:11;;;;;;;5.50;4.40;;;;;;;17.84;100.00;106214.38;5088848;28;20208;-58
2023/06/14 02:46:38;;;;;;;5.27;4.43;;;;;;;17.65;100.00;98518.81;5088933;28;20219;-59
2023/06/14 02:49:05;;;;;;;5.63;5.10;;;;;;;17.45;100.00;91839.16;5088805;28;20535;-58
2023/06/14 02:51:32;;;;;;;5.30;4.90;;;;;;;17.61;100.00;94189.50;5088582;28;20258;-59
2023/06/14 02:53:59;;;;;;;4.87;4.67;;;;;;;17.62;100.00;93859.59;5088802;28;20186;-59
2023/06/14 02:56:27;;;;;;;5.00;4.60;;;;;;;17.56;100.00;92853.44;5088397;28;20188;-59
2023/06/14 02:58:56;;;;;;;5.07;4.77;;;;;;;17.64;100.00;93530.53;5088399;28;20192;-59
2023/06/14 03:01:23;;;;;;;6.23;4.70;;;;;;;17.68;100.00;95197.88;5088354;28;20185;-59
2023/06/14 03:03:49;;;;;;;6.50;6.00;;;;;;;17.76;100.00;99536.56;5088188;28;20204;-59
2023/06/14 03:06:17;;;;;;;6.33;5.93;;;;;;;17.71;100.00;96532.78;5088261;28;20189;-59
2023/06/14 03:08:43;;;;;;;6.00;5.57;;;;;;;17.91;100.00;98562.25;5088581;28;20558;-58
2023/06/14 03:11:10;;;;;;;6.47;5.70;;;;;;;18.10;100.00;117625.13;5088497;28;20627;-58
2023/06/14 03:13:40;;;;;;;8.67;5.53;;;;;;;18.30;100.00;135067.25;5088489;28;20622;-60
2023/06/14 03:16:09;;;;;;;6.43;5.57;;;;;;;18.76;100.00;150751.63;5088420;28;20243;-58
2023/06/14 03:18:36;;;;;;;5.23;4.90;;;;;;;19.43;100.00;150920.94;5088016;28;20199;-59
2023/06/14 03:21:03;;;;;;;5.33;5.13;;;;;;;20.49;100.00;151189.59;5087977;28;20185;-59
2023/06/14 03:23:30;;;;;;;6.20;5.60;;;;;;;20.89;100.00;151290.19;5087929;28;20717;-59
2023/06/14 03:25:57;;;;;;;6.80;5.40;;;;;;;20.51;100.00;151194.66;5088169;28;20772;-59
2023/06/14 03:28:24;;;;;;;5.07;4.87;;;;;;;20.41;100.00;151167.94;5088193;28;20476;-59
2023/06/14 03:30:51;;;;;;;5.37;5.17;;;;;;;20.27;100.00;151132.22;5088039;28;20547;-60
2023/06/14 03:33:19;;;;;;;5.00;4.70;;;;;;;20.14;100.00;151100.41;5088080;28;20551;-60
2023/06/14 03:35:46;;;;;;;5.63;5.27;;;;;;;20.24;100.00;151124.59;5074130;28;20193;-59
2023/06/14 03:38:13;;;;;;;5.20;4.90;;;;;;;20.00;100.00;151066.00;5073035;28;20200;-60
2023/06/14 03:40:40;;;;;;;6.33;5.83;;;;;;;20.13;100.00;151096.56;5074103;28;20267;-58
2023/06/14 03:43:07;;;;;;;5.30;5.10;;;;;;;20.24;100.00;151125.81;5073998;28;20205;-60
2023/06/14 03:45:34;;;;;;;4.90;4.80;;;;;;;20.15;100.00;151102.94;5073990;28;20200;-59
2023/06/14 03:48:01;;;;;;;6.40;5.80;;;;;;;20.28;100.00;151136.06;5074268;28;20559;-60
2023/06/14 03:50:29;;;;;;;5.77;5.43;;;;;;;20.54;100.00;151201.00;5074337;28;20614;-58
2023/06/14 03:52:56;;;;;;;5.10;4.73;;;;;;;20.52;100.00;151197.22;5074200;28;20185;-59
2023/06/14 03:55:25;;;;;;;5.23;4.80;;;;;;;20.62;100.00;151220.16;5073884;28;20192;-59
2023/06/14 03:57:52;;;;;;;6.97;5.57;;;;;;;20.84;100.00;151276.16;5073901;28;20189;-59
2023/06/14 04:00:19;;;;;;;6.60;6.20;;;;;;;21.01;100.00;151318.19;5074181;28;20196;-59
2023/06/14 04:02:46;;;;;;;5.45;4.97;;;;;;;21.19;100.00;151364.13;5073924;28;20234;-60
2023/06/14 04:05:16;;;;;;;6.17;5.60;;;;;;;21.45;100.00;151429.13;5074038;28;20192;-60
2023/06/14 04:07:45;;;;;;;5.50;4.93;;;;;;;21.63;100.00;151476.28;5074026;28;20184;-59
2023/06/14 04:10:13;;;;;;;5.85;5.45;;;;;;;21.81;100.00;151522.16;5073679;28;20189;-60
2023/06/14 04:12:40;;;;;;;5.57;5.28;;;;;;;21.98;100.00;151564.25;5073569;28;20191;-60
2023/06/14 04:15:08;;;;;;;5.45;5.03;;;;;;;22.31;100.00;151648.44;5073960;28;20197;-59
2023/06/14 04:17:35;;;;;;;7.05;5.00;;;;;;;22.59;100.00;151718.56;5073443;28;20271;-59
2023/06/14 04:20:04;;;;;;;5.05;4.70;;;;;;;22.52;100.00;151700.72;5073391;28;20189;-59
2023/06/14 04:22:31;;;;;;;5.18;4.90;;;;;;;22.51;100.00;151696.88;5073302;28;20693;-59
2023/06/14 04:25:00;;;;;;;5.28;5.05;;;;;;;22.75;100.00;151759.41;5073580;28;20694;-59
2023/06/14 04:27:28;;;;;;;5.63;5.20;;;;;;;22.98;100.00;151816.84;5073579;28;20481;-59
2023/06/14 04:29:56;;;;;;;9.02;5.70;;;;;;;;;;5073433;28;20550;-60
2023/06/14 04:32:26;;;;;;;5.95;5.35;;;;;;;23.08;100.00;151842.38;5073438;28;20591;-60
2023/06/14 04:34:54;;;;;;;6.10;5.70;;;;;;;23.12;100.00;151852.56;5073000;28;20226;-60
2023/06/14 04:37:22;;;;;;;6.18;5.90;;;;;;;23.22;100.00;151878.06;5073171;28;20576;-59
2023/06/14 04:39:49;;;;;;;13.95;6.68;;;;;;;23.46;100.00;151936.84;5072983;28;20242;-60
2023/06/14 04:42:20;;;;;;;6.22;5.93;;;;;;;23.64;100.00;151982.75;5072993;28;20185;-59
2023/06/14 04:44:48;;;;;;;6.60;6.05;;;;;;;23.43;100.00;151930.44;5071551;28;20235;-61
2023/06/14 04:47:16;;;;;;;5.97;5.55;;;;;;;23.48;100.00;151943.19;5071990;28;20188;-59
2023/06/14 04:49:43;;;;;;;6.93;6.22;;;;;;;23.47;100.00;151940.63;5073001;28;20188;-60
2023/06/14 04:52:12;;;;;;;6.45;5.95;;;;;;;23.46;100.00;151936.84;5073118;28;20258;-59
2023/06/14 04:54:41;;;;;;;13.43;5.82;;;;;;;23.43;100.00;151930.44;5072109;28;20602;-59
2023/06/14 04:57:09;;;;;;;6.85;6.30;;;;;;;23.61;100.00;151976.38;5072950;28;20188;-59
2023/06/14 04:59:37;;;;;;;10.40;5.47;;;;;;;23.78;100.00;152017.22;5072789;28;20184;-60
2023/06/14 05:02:06;;;;;;;6.28;5.78;;;;;;;24.07;100.00;152092.53;5072874;28;20231;-60
2023/06/14 05:04:33;;;;;;;9.07;5.97;;;;;;;24.21;100.00;152127.06;5072974;28;20683;-59
2023/06/14 05:07:01;;;;;;;6.50;5.78;;;;;;;24.13;100.00;152107.88;5073212;28;20647;-60
2023/06/14 05:09:27;;;;;;;4.97;4.78;;;;;;;24.17;100.00;152115.56;5072557;28;20192;-60
2023/06/14 05:11:55;;;;;;;5.25;4.70;;;;;;;24.27;100.00;152142.41;5072661;28;20191;-61
2023/06/14 05:14:23;;;;;;;5.55;5.07;;;;;;;24.46;100.00;152190.91;5072886;28;20192;-61
2023/06/14 05:16:51;;;;;;;5.22;4.82;;;;;;;24.62;100.00;152230.47;5072743;28;20599;-60
2023/06/14 05:19:18;;;;;;;6.38;5.25;;;;;;;24.72;100.00;152256.03;5072885;28;20185;-60
2023/06/14 05:21:45;;;;;;;5.97;5.47;;;;;;;24.73;100.00;152258.59;5072962;28;20188;-60
2023/06/14 05:24:12;;;;;;;8.88;5.15;;;;;;;25.01;100.00;152328.88;5072340;28;20232;-60
2023/06/14 05:26:39;;;;;;;5.63;5.25;;;;;;;25.00;100.00;152326.31;5072528;28;20189;-61
2023/06/14 05:29:06;;;;;;;5.68;5.28;;;;;;;25.18;100.00;152371.03;5073445;28;20213;-60
2023/06/14 05:31:33;;;;;;;4.53;4.32;;;;;;;25.18;100.00;152371.03;5074038;28;20193;-64
2023/06/14 05:34:02;;;;;;;6.15;5.32;;;;;;;25.12;100.00;152356.97;5073728;28;20184;-62
2023/06/14 05:36:29;;;;;;;7.28;5.10;;;;;;;25.20;100.00;152376.16;5073906;28;20212;-62
2023/06/14 05:38:59;;;;;;;8.88;5.53;;;;;;;25.26;100.00;152391.47;5074156;28;20181;-63
2023/06/14 05:41:27;;;;;;;6.13;5.53;;;;;;;25.40;100.00;152428.56;5073336;28;20193;-61
2023/06/14 05:43:55;;;;;;;7.65;5.50;;;;;;;25.48;100.00;152447.72;5073504;28;20254;-62
2023/06/14 05:46:25;;;;;;;8.00;7.40;;;;;;;25.53;100.00;152460.53;5073358;28;20181;-62
2023/06/14 05:48:52;;;;;;;4.55;4.20;;;;;;;25.71;100.00;152505.28;5073574;28;20187;-62
2023/06/14 05:51:20;;;;;;;12.25;4.40;;;;;;;25.86;100.00;152544.88;5072837;28;20189;-62
2023/06/14 05:53:47;;;;;;;6.88;6.22;;;;;;;25.91;100.00;152557.69;5073554;28;20185;-61
2023/06/14 05:56:14;;;;;;;5.55;5.15;;;;;;;26.43;100.00;152688.13;5073015;28;20189;-62
2023/06/14 05:58:41;;;;;;;4.75;4.45;;;;;;;26.73;100.00;152764.81;5071995;28;20191;-62
2023/06/14 06:01:08;;;;;;;6.00;4.40;;;;;;;27.16;100.00;152872.31;5072654;28;20556;-62
2023/06/14 06:03:35;;;;;;;5.35;4.20;;;;;;;27.47;100.00;152951.69;5072620;28;20208;-62
2023/06/14 06:06:03;;;;;;;4.53;4.10;;;;;;;27.74;100.00;153018.22;5072567;28;20192;-62
2023/06/14 06:08:32;;;;;;;8.80;4.55;;;;;;;27.30;100.00;152906.84;5072857;28;20181;-63
2023/06/14 06:11:00;;;;;;;4.70;4.35;;;;;;;27.16;100.00;152873.59;5072042;28;20253;-63
2023/06/14 06:13:27;;;;;;;5.03;4.60;;;;;;;26.85;100.00;152793.03;5072734;28;20609;-63
2023/06/14 06:15:54;;;;;;;6.32;4.70;;;;;;;27.02;100.00;152837.78;5071925;28;20193;-62
2023/06/14 06:18:20;;;;;;;8.07;5.60;;;;;;;27.04;100.00;152842.88;5072433;28;20647;-62
2023/06/14 06:20:48;;;;;;;13.40;4.85;;;;;;;27.02;100.00;152837.78;5072069;28;20543;-62
2023/06/14 06:23:15;;;;;;;8.27;4.60;;;;;;;26.56;100.00;152720.09;5072767;28;20761;-62
2023/06/14 06:25:43;;;;;;;4.50;4.20;;;;;;;26.06;100.00;152593.44;5072785;28;20185;-62
2023/06/14 06:28:10;;;;;;;5.18;4.43;;;;;;;26.03;100.00;152587.06;5072728;28;20185;-62
2023/06/14 06:30:37;;;;;;;8.43;4.75;;;;;;;25.81;100.00;152532.09;5072597;28;20192;-62
2023/06/14 06:33:04;;;;;;;6.70;6.05;;;;;;;25.85;100.00;152542.31;5071616;28;20192;-60
2023/06/14 06:35:32;;;;;;;4.38;3.90;;;;;;;26.90;100.00;152805.81;5071844;28;20263;-63
2023/06/14 06:38:00;;;;;;;3.45;3.17;;;;;;;28.13;100.00;153119.34;5071787;28;20201;-62
2023/06/14 06:40:29;;;;;;;17.05;4.10;;;;;;;28.90;100.00;153312.72;5072059;28;20189;-63
2023/06/14 06:42:57;;;;;;;5.57;3.10;;;;;;;29.10;100.00;153364.00;5072162;28;20197;-63
2023/06/14 06:45:24;;;;;;;3.67;2.78;;;;;;;28.95;100.00;153325.53;5072197;28;20717;-63
2023/06/14 06:47:53;;;;;;;2.58;2.47;;;;;;;28.94;100.00;153323.03;5072243;28;20311;-63
2023/06/14 06:50:22;;;;;;;3.65;2.70;;;;;;;28.56;95.63;153226.88;5072002;28;20635;-63
2023/06/14 06:52:52;;;;;;;7.13;6.03;;;;;;;28.28;98.13;153156.50;5074330;28;20187;-63
2023/06/14 06:55:19;;;;;;;6.35;2.92;;;;;;;28.77;100.00;153280.72;5074325;28;20193;-63
2023/06/14 06:57:46;;;;;;;2.45;2.35;;;;;;;29.44;94.74;153449.88;5073604;28;20211;-62
2023/06/14 07:00:17;;;;;;;3.92;3.22;;;;;;;29.68;90.07;153510.06;5074862;28;20181;-64
2023/06/14 07:02:44;;;;;;;2.28;2.17;;;;;;;29.60;93.26;153490.84;5074664;28;20219;-64
2023/06/14 07:05:11;;;;;;;2.22;2.03;;;;;;;29.44;92.87;153451.16;5074486;28;20659;-66
2023/06/14 07:07:38;;;;;;;3.25;2.60;;;;;;;29.01;95.55;153340.94;5073806;28;20181;-66
2023/06/14 07:10:07;;;;;;;3.08;2.97;;;;;;;28.70;94.02;153262.81;5072456;28;20184;-66
2023/06/14 07:12:39;;;;;;;4.10;3.90;;;;;;;28.21;98.64;153138.59;5077068;28;20229;-66
2023/06/14 07:15:07;;;;;;;3.58;2.50;;;;;;;28.01;100.00;153087.31;5075599;28;20193;-65
2023/06/14 07:17:36;;;;;;;2.30;2.10;;;;;;;27.89;100.00;153056.59;5076565;28;20192;-65
2023/06/14 07:20:12;;;;;;;2.72;2.63;;;;;;;28.21;100.00;153138.59;5078496;28;20189;-66
2023/06/14 07:22:40;;;;;;;9.13;2.88;;;;;;;28.23;99.88;153143.69;5078048;28;20274;-64
2023/06/14 07:25:09;;;;;;;2.60;2.50;;;;;;;28.43;96.79;153194.88;5077576;28;20295;-66
2023/06/14 07:27:37;;;;;;;2.78;2.58;;;;;;;28.64;95.58;153247.41;5075460;28;20185;-65
2023/06/14 07:30:04;;;;;;;2.17;2.03;;;;;;;28.90;91.73;153312.72;5054757;28;20296;-66
2023/06/14 07:32:31;;;;;;;2.10;2.00;;;;;;;29.12;89.49;153367.81;5075258;28;20276;-65
2023/06/14 07:34:59;;;;;;;2.60;2.50;;;;;;;29.26;89.44;153404.97;5076338;28;20181;-66
2023/06/14 07:37:26;;;;;;;2.58;2.25;;;;;;;29.30;86.25;153415.25;5072987;28;20192;-66
2023/06/14 07:39:53;;;;;;;1.60;1.50;;;;;;;29.39;87.92;153438.31;5075102;28;20199;-66
2023/06/14 07:42:20;;;;;;;2.10;2.00;;;;;;;29.43;87.95;153448.56;5076126;28;20196;-67
2023/06/14 07:44:47;;;;;;;4.40;2.20;;;;;;;29.37;88.66;153431.91;5075632;28;20211;-66
2023/06/14 07:47:14;;;;;;;2.30;2.17;;;;;;;29.43;87.52;153448.56;5075972;28;20275;-66
2023/06/14 07:49:41;;;;;;;4.40;2.85;;;;;;;29.30;86.66;153415.25;5076466;28;20609;-65
2023/06/14 07:52:13;;;;;;;4.07;3.70;;;;;;;29.02;82.98;153344.78;5077966;28;20185;-66
2023/06/14 07:54:40;;;;;;;3.40;2.30;;;;;;;28.50;91.07;153212.84;5077487;28;20185;-66
2023/06/14 07:57:19;;;;;;;2.40;2.20;;;;;;;28.70;92.05;153261.53;5075864;28;20590;-58
2023/06/14 07:59:46;;;;;;;2.35;1.95;;;;;;;28.99;87.90;153335.78;5076899;28;20207;-65
2023/06/14 08:02:13;;;;;;;3.05;2.70;;;;;;;28.88;91.23;153308.91;5076343;28;20209;-66
2023/06/14 08:04:41;;;;;;;2.45;2.15;;;;;;;28.85;92.90;153299.97;5076794;28;20547;-65
2023/06/14 08:07:12;;;;;;;2.83;2.28;;;;;;;29.01;87.56;153340.94;5076589;28;20189;-66
2023/06/14 08:09:39;;;;;;;11.00;3.85;;;;;;;28.89;91.89;153310.22;5076796;28;20205;-65
2023/06/14 08:12:07;;;;;;;2.33;2.13;;;;;;;29.14;82.67;153372.94;5076034;28;20188;-65
2023/06/14 08:14:34;;;;;;;2.25;2.13;;;;;;;29.31;86.93;153416.56;5076035;28;20261;-65
2023/06/14 08:17:01;;;;;;;2.25;2.15;;;;;;;29.51;82.29;153467.78;5074603;28;20185;-65
2023/06/14 08:19:28;;;;;;;4.20;2.10;;;;;;;29.08;86.17;153357.56;5074915;28;20181;-66
2023/06/14 08:21:56;;;;;;;2.90;2.70;;;;;;;29.08;89.78;153357.56;5074689;28;20184;-66
2023/06/14 08:24:25;;;;;;;3.25;2.17;;;;;;;29.50;88.46;153465.22;5074404;28;20228;-65
2023/06/14 08:26:51;;;;;;;2.25;2.15;;;;;;;29.36;85.60;153429.38;5074626;28;20627;-65
2023/06/14 08:29:18;;;;;;;3.60;2.55;;;;;;;29.27;85.68;153407.53;5074402;28;20201;-65
2023/06/14 08:31:46;;;;;;;5.88;2.67;;;;;;;29.06;87.65;153353.75;5073332;28;20189;-66
2023/06/14 08:34:12;;;;;;;2.30;2.20;;;;;;;29.14;86.31;153374.25;5074342;28;20180;-65
2023/06/14 08:36:39;;;;;;;4.90;2.58;;;;;;;28.87;84.88;153306.34;5073438;28;20188;-65
2023/06/14 08:39:08;;;;;;;2.10;2.00;;;;;;;28.96;83.56;153329.41;5074130;28;20216;-66
2023/06/14 08:41:37;;;;;;;2.90;2.70;;;;;;;29.25;91.80;153402.41;5073779;28;20185;-66
2023/06/14 08:44:06;;;;;;;3.53;2.67;;;;;;;29.70;91.29;153515.19;5072758;28;20185;-65
2023/06/14 08:46:36;;;;;;;3.47;2.88;;;;;;;30.11;89.13;153620.31;5072954;28;20327;-66
2023/06/14 08:49:05;;;;;;;13.68;4.38;;;;;;;30.52;84.05;153722.88;5073379;28;20642;-66
2023/06/14 08:51:34;;;;;;;2.15;2.05;;;;;;;30.55;81.08;153730.59;5074178;28;20184;-65
2023/06/14 08:54:03;;;;;;;2.88;2.42;;;;;;;30.25;80.95;153656.22;5073205;28;20605;-67
2023/06/14 08:56:31;;;;;;;3.15;2.63;;;;;;;30.10;81.62;153616.44;5073059;28;20184;-66
2023/06/14 08:59:02;;;;;;;2.53;2.33;;;;;;;29.79;82.70;153538.28;5072651;28;20192;-65
2023/06/14 09:01:31;;;;;;;2.35;2.13;;;;;;;29.77;81.25;153533.13;5072843;28;20181;-65
2023/06/14 09:03:58;;;;;;;2.80;2.60;;;;;;;30.39;80.18;153692.06;5072827;28;20275;-65
2023/06/14 09:06:27;;;;;;;2.30;2.20;;;;;;;30.78;79.84;153789.53;5073823;28;20636;-65
2023/06/14 09:08:56;;;;;;;4.10;2.30;;;;;;;31.12;77.70;153876.78;5072569;28;20292;-64
2023/06/14 09:11:23;;;;;;;2.55;2.13;;;;;;;30.93;72.28;153826.75;5073142;28;20621;-65
2023/06/14 09:13:51;;;;;;;3.08;2.30;;;;;;;30.58;74.42;153738.28;5073584;28;20232;-65
2023/06/14 09:16:19;;;;;;;2.72;2.63;;;;;;;30.51;77.55;153720.34;5072663;28;20203;-65
2023/06/14 09:18:48;;;;;;;3.53;2.70;;;;;;;30.13;78.28;153624.19;5072847;28;20203;-66
2023/06/14 09:21:16;;;;;;;2.08;2.00;;;;;;;30.22;75.60;153647.19;5072708;28;20219;-65
2023/06/14 09:23:45;;;;;;;2.28;2.17;;;;;;;30.24;77.37;153652.34;5072479;28;20243;-65
2023/06/14 09:26:14;;;;;;;2.05;1.95;;;;;;;30.17;78.18;153635.66;5072062;28;20204;-65
2023/06/14 09:28:44;;;;;;;1.88;1.83;;;;;;;30.22;79.22;153648.47;5072378;28;20214;-65
2023/06/14 09:31:12;;;;;;;2.20;2.10;;;;;;;30.51;78.12;153720.34;5071939;28;20189;-65
2023/06/14 09:33:42;;;;;;;2.20;2.10;;;;;;;30.41;75.37;153695.94;5071772;28;20193;-65
2023/06/14 09:36:11;;;;;;;4.38;4.00;;;;;;;30.06;78.68;153607.47;5070830;28;20188;-65
2023/06/14 09:38:41;;;;;;;5.72;3.60;;;;;;;29.82;81.55;153547.22;5071768;28;20203;-64
2023/06/14 09:41:08;;;;;;;6.82;3.58;;;;;;;29.90;80.84;153567.78;5072102;28;20546;-65
2023/06/14 09:43:35;;;;;;;3.83;2.10;;;;;;;29.92;80.33;153572.88;5072353;28;20197;-64
2023/06/14 09:46:02;;;;;;;2.08;1.98;;;;;;;28.96;85.39;153328.13;5071695;28;20204;-65
2023/06/14 09:48:29;;;;;;;6.75;2.20;;;;;;;28.80;88.63;153288.44;5072135;28;20611;-65
2023/06/14 09:50:59;;;;;;;4.60;2.55;;;;;;;28.80;92.25;153288.44;5071807;28;20601;-65
2023/06/14 09:53:29;;;;;;;2.55;2.35;;;;;;;28.96;90.97;153329.41;5071735;28;20184;-66
2023/06/14 09:55:59;;;;;;;2.10;2.00;;;;;;;28.76;88.52;153278.19;5071752;28;20547;-66
2023/06/14 09:58:29;;;;;;;2.20;2.10;;;;;;;29.23;91.38;153397.28;5071348;28;20639;-65
2023/06/14 10:00:56;;;;;;;2.35;2.25;;;;;;;29.98;82.37;153587.00;5071302;28;20234;-65
2023/06/14 10:03:36;;;;;;;2.55;2.00;;;;;;;30.91;76.40;153822.88;5072235;28;20215;-59
2023/06/14 10:06:09;;;;;;;4.15;2.28;;;;;;;31.11;73.57;153874.22;5071302;28;20216;-59
2023/06/14 10:08:41;;;;;;;3.55;2.33;;;;;;;31.40;68.83;153946.06;5071368;28;20215;-59
2023/06/14 10:11:08;;;;;;;2.03;1.92;;;;;;;31.27;72.56;153915.22;5071476;28;20271;-58
2023/06/14 10:13:36;;;;;;;1.85;1.75;;;;;;;30.32;72.25;153672.84;5071271;28;20209;-58
2023/06/14 10:16:10;;;;;;;2.63;2.45;;;;;;;30.50;75.90;153719.06;5071005;28;20184;-61
2023/06/14 10:18:46;;;;;;;3.75;2.75;;;;;;;29.75;80.23;153527.97;5070955;28;20184;-59
2023/06/14 10:21:23;;;;;;;6.00;2.83;;;;;;;29.41;85.72;153443.44;5071232;28;20184;-58
2023/06/14 10:23:51;;;;;;;3.33;3.03;;;;;;;29.18;92.15;153383.19;5070896;28;20250;-58
2023/06/14 10:26:23;;;;;;;3.20;3.00;;;;;;;29.12;96.23;153369.09;5071190;28;20619;-59
2023/06/14 10:29:01;;;;;;;10.95;3.70;;;;;;;28.95;96.78;153325.53;5071177;28;20657;-58
2023/06/14 10:31:47;;;;;;;2.83;2.60;;;;;;;28.47;95.92;153205.19;5071095;28;20176;-59
2023/06/14 10:34:24;;;;;;;2.53;2.33;;;;;;;28.30;93.67;153160.34;5071391;28;20650;-59
2023/06/14 10:37:05;;;;;;;2.05;1.85;;;;;;;28.00;91.15;153084.78;5071232;28;20223;-59
2023/06/14 10:39:34;;;;;;;2.10;2.00;;;;;;;28.27;88.99;153152.63;5071189;28;20203;-59
2023/06/14 10:42:05;;;;;;;1.70;1.70;;;;;;;28.35;89.11;153174.41;5071015;28;20192;-59
2023/06/14 10:44:54;;;;;;;3.03;2.88;;;;;;;28.24;97.63;153146.25;5070862;28;20207;-57
2023/06/14 10:47:24;;;;;;;5.03;3.92;;;;;;;28.14;100.00;153121.94;5074903;28;20276;-59
2023/06/14 10:49:53;;;;;;;6.38;3.42;;;;;;;27.91;100.00;153061.75;5074895;28;20185;-59
2023/06/14 10:52:27;;;;;;;3.72;3.40;;;;;;;28.02;100.00;153089.88;5074617;28;20188;-60
2023/06/14 10:55:00;;;;;;;4.68;3.20;;;;;;;27.97;100.00;153077.06;5074979;28;20187;-59
2023/06/14 10:57:27;;;;;;;2.55;2.45;;;;;;;27.70;100.00;153010.56;5074959;28;20191;-59
2023/06/14 10:59:55;;;;;;;6.38;3.20;;;;;;;27.39;100.00;152931.16;5074553;28;20584;-60
2023/06/14 11:02:47;;;;;;;3.88;3.33;;;;;;;27.01;100.00;152833.94;5074896;28;20204;-57
2023/06/14 11:05:16;;;;;;;3.45;3.15;;;;;;;26.79;100.00;152780.19;5074746;28;20205;-58
2023/06/14 11:07:56;;;;;;;4.22;3.38;;;;;;;26.69;100.00;152754.59;5074605;28;20191;-59
2023/06/14 11:10:33;;;;;;;6.18;2.72;;;;;;;26.58;100.00;152725.19;5074542;28;20643;-59
2023/06/14 11:13:00;;;;;;;4.80;2.70;;;;;;;26.92;100.00;152810.91;5074616;28;20265;-59
2023/06/14 11:15:30;;;;;;;4.90;3.00;;;;;;;27.17;100.00;152874.88;5074576;28;20192;-58
2023/06/14 11:17:57;;;;;;;3.28;3.17;;;;;;;27.20;100.00;152882.56;5074460;28;20227;-58
2023/06/14 11:20:27;;;;;;;3.20;3.05;;;;;;;27.16;100.00;152872.31;5074321;28;20205;-58
2023/06/14 11:22:55;;;;;;;3.33;3.03;;;;;;;27.16;100.00;152873.59;5073953;28;20228;-59
2023/06/14 11:25:22;;;;;;;3.08;2.97;;;;;;;26.93;100.00;152814.78;5074515;28;20216;-59